createdAt,value
2018-09-26T00:00:31.277Z,99.99
2018-09-26T00:01:31.272Z,99.99
2018-09-26T00:02:31.262Z,99.99
2018-09-26T00:03:31.256Z,99.99
2018-09-26T00:04:31.246Z,99.99
2018-09-26T00:05:31.246Z,99.99
2018-09-26T00:06:31.230Z,99.99
2018-09-26T00:07:31.228Z,99.99
2018-09-26T00:08:31.214Z,99.99
2018-09-26T00:09:31.210Z,99.99
2018-09-26T00:10:31.203Z,99.99
2018-09-26T00:11:31.195Z,99.99
2018-09-26T00:12:31.189Z,99.99
2018-09-26T00:13:31.180Z,99.99
2018-09-26T00:14:31.735Z,99.99
2018-09-26T00:15:31.166Z,99.99
2018-09-26T00:16:31.157Z,99.99
2018-09-26T00:17:31.152Z,99.99
2018-09-26T00:18:31.148Z,99.99
2018-09-26T00:19:31.138Z,99.99
2018-09-26T00:20:31.135Z,99.99
2018-09-26T00:21:31.121Z,99.99
2018-09-26T00:22:31.116Z,99.99
2018-09-26T00:23:31.106Z,99.99
2018-09-26T00:24:31.098Z,99.99
2018-09-26T00:25:31.092Z,99.99
2018-09-26T00:26:31.083Z,99.99
2018-09-26T00:27:31.075Z,99.99
2018-09-26T00:28:31.068Z,99.99
2018-09-26T00:29:31.063Z,99.99
2018-09-26T00:30:31.061Z,99.99
2018-09-26T00:31:31.047Z,99.99
2018-09-26T00:32:31.038Z,99.99
2018-09-26T00:33:31.035Z,99.99
2018-09-26T00:34:31.027Z,99.99
2018-09-26T00:35:31.017Z,99.99
2018-09-26T00:36:31.007Z,99.99
2018-09-26T00:37:31.003Z,99.99
2018-09-26T00:38:30.998Z,99.99
2018-09-26T00:39:30.988Z,99.99
2018-09-26T00:40:30.977Z,99.99
2018-09-26T00:41:30.970Z,99.99
2018-09-26T00:42:30.961Z,99.99
2018-09-26T00:43:30.961Z,99.99
2018-09-26T00:44:30.948Z,99.99
2018-09-26T00:45:30.941Z,99.99
2018-09-26T00:46:30.935Z,99.99
2018-09-26T00:47:30.927Z,99.99
2018-09-26T00:48:30.928Z,99.99
2018-09-26T00:49:30.913Z,99.99
2018-09-26T00:50:30.903Z,99.99
2018-09-26T00:51:30.899Z,99.99
2018-09-26T00:52:30.895Z,99.99
2018-09-26T00:53:30.880Z,99.99
2018-09-26T00:54:30.872Z,99.99
2018-09-26T00:55:30.873Z,99.99
2018-09-26T00:56:30.857Z,99.99
2018-09-26T00:57:30.851Z,99.99
2018-09-26T00:58:30.843Z,99.99
2018-09-26T00:59:30.838Z,99.99
2018-09-26T01:00:30.826Z,99.99
2018-09-26T01:01:30.820Z,99.99
2018-09-26T01:02:30.812Z,99.99
2018-09-26T01:03:30.807Z,99.99
2018-09-26T01:04:30.806Z,99.99
2018-09-26T01:05:30.789Z,99.99
2018-09-26T01:06:30.782Z,99.99
2018-09-26T01:07:30.775Z,99.99
2018-09-26T01:08:30.766Z,99.99
2018-09-26T01:09:30.762Z,99.99
2018-09-26T01:10:30.752Z,99.99
2018-09-26T01:11:30.749Z,99.99
2018-09-26T01:12:30.735Z,99.99
2018-09-26T01:13:30.729Z,99.99
2018-09-26T01:14:30.726Z,99.99
2018-09-26T01:15:30.720Z,99.99
2018-09-26T01:16:30.706Z,99.99
2018-09-26T01:17:30.697Z,99.99
2018-09-26T01:18:30.692Z,99.99
2018-09-26T01:19:30.685Z,99.99
2018-09-26T01:20:30.677Z,99.99
2018-09-26T01:21:30.667Z,99.99
2018-09-26T01:22:30.661Z,99.99
2018-09-26T01:23:30.653Z,99.99
2018-09-26T01:24:30.644Z,99.99
2018-09-26T01:25:30.643Z,99.99
2018-09-26T01:26:30.630Z,99.99
2018-09-26T01:27:30.624Z,99.99
2018-09-26T01:28:30.616Z,99.99
2018-09-26T01:29:30.609Z,99.99
2018-09-26T01:30:30.600Z,99.99
2018-09-26T01:31:30.592Z,99.99
2018-09-26T01:32:30.583Z,99.99
2018-09-26T01:33:30.579Z,99.99
2018-09-26T01:34:30.572Z,99.99
2018-09-26T01:35:30.564Z,99.99
2018-09-26T01:36:30.570Z,99.99
2018-09-26T01:37:30.543Z,99.99
2018-09-26T01:38:30.542Z,99.99
2018-09-26T01:39:30.532Z,99.99
2018-09-26T01:40:30.523Z,99.99
2018-09-26T01:41:30.544Z,99.99
2018-09-26T01:42:30.509Z,99.99
2018-09-26T01:43:30.502Z,99.99
2018-09-26T01:44:30.494Z,99.99
2018-09-26T01:45:30.485Z,99.99
2018-09-26T01:46:30.478Z,99.99
2018-09-26T01:47:30.473Z,99.99
2018-09-26T01:48:30.461Z,99.99
2018-09-26T01:49:30.460Z,99.99
2018-09-26T01:50:31.255Z,99.99
2018-09-26T01:51:30.444Z,99.99
2018-09-26T01:52:30.432Z,99.99
2018-09-26T01:53:30.425Z,99.99
2018-09-26T01:54:30.418Z,99.99
2018-09-26T01:55:30.413Z,99.99
2018-09-26T01:56:30.404Z,99.99
2018-09-26T01:57:30.399Z,99.99
2018-09-26T01:58:30.386Z,99.99
2018-09-26T01:59:30.378Z,99.99
2018-09-26T02:00:30.372Z,99.99
2018-09-26T02:01:30.365Z,99.99
2018-09-26T02:02:30.359Z,99.99
2018-09-26T02:03:30.357Z,99.99
2018-09-26T02:04:30.340Z,99.99
2018-09-26T02:05:30.334Z,99.99
2018-09-26T02:06:30.326Z,99.99
2018-09-26T02:07:30.322Z,99.99
2018-09-26T02:08:30.310Z,99.99
2018-09-26T02:09:30.304Z,99.99
2018-09-26T02:10:30.298Z,99.99
2018-09-26T02:11:30.290Z,99.99
2018-09-26T02:12:30.279Z,99.99
2018-09-26T02:13:30.273Z,99.99
2018-09-26T02:14:30.265Z,99.99
2018-09-26T02:15:30.261Z,99.99
2018-09-26T02:16:30.246Z,99.99
2018-09-26T02:17:30.244Z,99.99
2018-09-26T02:18:30.233Z,99.99
2018-09-26T02:19:30.227Z,99.99
2018-09-26T02:20:30.221Z,99.99
2018-09-26T02:21:30.211Z,99.99
2018-09-26T02:22:30.204Z,99.99
2018-09-26T02:23:30.213Z,99.99
2018-09-26T02:24:30.200Z,99.99
2018-09-26T02:25:30.181Z,99.99
2018-09-26T02:26:30.174Z,99.99
2018-09-26T02:27:30.166Z,99.99
2018-09-26T02:28:30.155Z,99.99
2018-09-26T02:29:30.150Z,99.99
2018-09-26T02:30:30.141Z,99.99
2018-09-26T02:31:30.136Z,99.99
2018-09-26T02:32:30.126Z,99.99
2018-09-26T02:33:30.124Z,99.99
2018-09-26T02:34:30.112Z,99.99
2018-09-26T02:35:30.105Z,99.99
2018-09-26T02:36:30.098Z,99.99
2018-09-26T02:37:30.087Z,99.99
2018-09-26T02:38:30.080Z,99.99
2018-09-26T02:39:30.075Z,99.99
2018-09-26T02:40:30.067Z,99.99
2018-09-26T02:41:30.058Z,99.99
2018-09-26T02:42:30.053Z,99.99
2018-09-26T02:43:30.041Z,99.99
2018-09-26T02:44:30.033Z,99.99
2018-09-26T02:45:30.028Z,99.99
2018-09-26T02:46:30.022Z,99.99
2018-09-26T02:47:30.018Z,99.99
2018-09-26T02:48:30.008Z,99.99
2018-09-26T02:49:29.998Z,99.99
2018-09-26T02:50:29.991Z,99.99
2018-09-26T02:51:29.978Z,99.99
2018-09-26T02:52:29.973Z,99.99
2018-09-26T02:53:29.965Z,99.99
2018-09-26T02:54:29.955Z,99.99
2018-09-26T02:55:29.949Z,99.99
2018-09-26T02:56:29.942Z,99.99
2018-09-26T02:57:29.933Z,99.99
2018-09-26T02:58:29.927Z,99.99
2018-09-26T02:59:29.934Z,99.99
2018-09-26T03:00:29.911Z,99.99
2018-09-26T03:01:29.907Z,99.99
2018-09-26T03:02:29.899Z,99.99
2018-09-26T03:03:29.890Z,99.99
2018-09-26T03:04:29.881Z,99.99
2018-09-26T03:05:29.971Z,99.99
2018-09-26T03:06:29.868Z,99.99
2018-09-26T03:07:29.861Z,99.99
2018-09-26T03:08:29.849Z,99.99
2018-09-26T03:09:29.845Z,99.99
2018-09-26T03:10:29.834Z,99.99
2018-09-26T03:11:29.827Z,99.99
2018-09-26T03:12:29.819Z,99.99
2018-09-26T03:13:29.811Z,99.99
2018-09-26T03:14:29.803Z,99.99
2018-09-26T03:15:29.793Z,99.99
2018-09-26T03:16:29.789Z,99.99
2018-09-26T03:17:29.828Z,99.99
2018-09-26T03:18:29.772Z,99.99
2018-09-26T03:19:29.771Z,99.99
2018-09-26T03:20:29.757Z,99.99
2018-09-26T03:21:29.753Z,99.99
2018-09-26T03:22:29.742Z,99.99
2018-09-26T03:23:29.738Z,99.99
2018-09-26T03:24:29.723Z,99.99
2018-09-26T03:25:29.718Z,99.99
2018-09-26T03:26:29.707Z,99.99
2018-09-26T03:27:29.702Z,99.99
2018-09-26T03:28:29.696Z,99.99
2018-09-26T03:29:29.691Z,99.99
2018-09-26T03:30:29.681Z,99.99
2018-09-26T03:31:29.671Z,99.99
2018-09-26T03:32:29.665Z,99.99
2018-09-26T03:33:29.665Z,99.99
2018-09-26T03:34:29.651Z,99.99
2018-09-26T03:35:29.646Z,99.99
2018-09-26T03:36:29.635Z,99.99
2018-09-26T03:37:29.625Z,99.99
2018-09-26T03:38:29.614Z,99.99
2018-09-26T03:39:29.612Z,99.99
2018-09-26T03:40:29.602Z,99.99
2018-09-26T03:41:29.594Z,99.99
2018-09-26T03:42:29.587Z,99.99
2018-09-26T03:43:29.580Z,99.99
2018-09-26T03:44:29.571Z,99.99
2018-09-26T03:45:29.570Z,99.99
2018-09-26T03:46:29.555Z,99.99
2018-09-26T03:47:29.548Z,99.99
2018-09-26T03:48:29.545Z,99.99
2018-09-26T03:49:29.535Z,99.99
2018-09-26T03:50:29.534Z,99.99
2018-09-26T03:51:29.517Z,99.99
2018-09-26T03:52:29.511Z,99.99
2018-09-26T03:53:29.512Z,99.99
2018-09-26T03:54:29.495Z,99.99
2018-09-26T03:55:29.497Z,99.99
2018-09-26T03:56:29.485Z,99.99
2018-09-26T03:57:29.475Z,99.99
2018-09-26T03:58:29.469Z,99.99
2018-09-26T03:59:29.458Z,99.99
2018-09-26T04:00:29.449Z,99.99
2018-09-26T04:01:29.444Z,99.99
2018-09-26T04:02:29.432Z,99.99
2018-09-26T04:03:29.430Z,99.99
2018-09-26T04:04:29.420Z,99.99
2018-09-26T04:05:29.411Z,99.99
2018-09-26T04:06:29.410Z,99.99
2018-09-26T04:07:29.398Z,99.99
2018-09-26T04:08:29.392Z,99.99
2018-09-26T04:09:29.382Z,99.99
2018-09-26T04:10:29.375Z,99.99
2018-09-26T04:11:29.369Z,99.99
2018-09-26T04:12:29.428Z,99.99
2018-09-26T04:13:29.352Z,99.99
2018-09-26T04:14:29.343Z,99.99
2018-09-26T04:15:29.343Z,99.99
2018-09-26T04:16:29.331Z,99.99
2018-09-26T04:17:29.326Z,99.99
2018-09-26T04:18:29.317Z,99.99
2018-09-26T04:19:29.311Z,99.99
2018-09-26T04:20:29.335Z,99.99
2018-09-26T04:21:29.292Z,99.99
2018-09-26T04:22:29.285Z,99.99
2018-09-26T04:23:29.277Z,99.99
2018-09-26T04:24:29.272Z,99.99
2018-09-26T04:25:29.261Z,99.99
2018-09-26T04:26:29.405Z,99.99
2018-09-26T04:27:29.347Z,99.99
2018-09-26T04:28:29.238Z,99.99
2018-09-26T04:29:29.229Z,99.99
2018-09-26T04:30:29.287Z,99.99
2018-09-26T04:31:29.217Z,99.99
2018-09-26T04:32:29.306Z,99.99
2018-09-26T04:33:29.283Z,99.99
2018-09-26T04:34:29.206Z,99.99
2018-09-26T04:35:29.185Z,99.99
2018-09-26T04:36:29.178Z,99.99
2018-09-26T04:37:29.172Z,99.99
2018-09-26T04:38:29.225Z,99.99
2018-09-26T04:39:29.160Z,99.99
2018-09-26T04:40:29.147Z,99.99
2018-09-26T04:41:29.144Z,99.99
2018-09-26T04:42:29.137Z,99.99
2018-09-26T04:43:29.155Z,99.99
2018-09-26T04:44:29.117Z,99.99
2018-09-26T04:45:29.109Z,99.99
2018-09-26T04:46:29.102Z,99.99
2018-09-26T04:47:29.096Z,99.99
2018-09-26T04:48:29.087Z,99.99
2018-09-26T04:49:29.079Z,99.99
2018-09-26T04:50:29.073Z,99.99
2018-09-26T04:51:29.066Z,99.99
2018-09-26T04:52:29.061Z,99.99
2018-09-26T04:53:29.050Z,99.99
2018-09-26T04:54:29.046Z,99.99
2018-09-26T04:55:29.042Z,99.99
2018-09-26T04:56:29.029Z,99.99
2018-09-26T04:57:29.019Z,99.99
2018-09-26T04:58:29.013Z,99.99
2018-09-26T04:59:29.004Z,99.99
2018-09-26T05:00:28.997Z,99.99
2018-09-26T05:01:28.989Z,99.99
2018-09-26T05:02:28.983Z,99.99
2018-09-26T05:03:28.976Z,99.99
2018-09-26T05:04:28.969Z,99.99
2018-09-26T05:05:28.961Z,99.99
2018-09-26T05:06:28.953Z,99.99
2018-09-26T05:07:28.945Z,99.99
2018-09-26T05:08:28.936Z,99.99
2018-09-26T05:09:28.931Z,99.99
2018-09-26T05:10:28.922Z,99.99
2018-09-26T05:11:28.916Z,99.99
2018-09-26T05:12:28.907Z,99.99
2018-09-26T05:13:28.899Z,99.99
2018-09-26T05:14:28.892Z,99.99
2018-09-26T05:15:28.890Z,99.99
2018-09-26T05:16:28.881Z,99.87
2018-09-26T05:17:28.871Z,99.11
2018-09-26T05:18:28.863Z,99.49
2018-09-26T05:19:28.856Z,99.11
2018-09-26T05:20:28.849Z,99.11
2018-09-26T05:21:28.841Z,99.11
2018-09-26T05:22:28.835Z,99.11
2018-09-26T05:23:28.826Z,98.45
2018-09-26T05:24:28.817Z,98.92
2018-09-26T05:25:28.809Z,98.26
2018-09-26T05:26:28.804Z,97.50
2018-09-26T05:27:28.796Z,97.50
2018-09-26T05:28:28.787Z,97.02
2018-09-26T05:29:28.781Z,97.02
2018-09-26T05:30:28.803Z,96.74
2018-09-26T05:31:28.767Z,95.94
2018-09-26T05:32:28.760Z,95.46
2018-09-26T05:33:28.756Z,96.22
2018-09-26T05:34:28.747Z,96.12
2018-09-26T05:35:28.744Z,96.12
2018-09-26T05:36:28.729Z,95.84
2018-09-26T05:37:28.726Z,95.84
2018-09-26T05:38:28.716Z,95.27
2018-09-26T05:39:28.710Z,94.98
2018-09-26T05:40:28.704Z,93.94
2018-09-26T05:41:28.696Z,93.75
2018-09-26T05:42:28.686Z,93.84
2018-09-26T05:43:28.685Z,93.08
2018-09-26T05:44:28.671Z,94.13
2018-09-26T05:45:28.667Z,93.04
2018-09-26T05:46:29.372Z,92.46
2018-09-26T05:47:28.653Z,93.32
2018-09-26T05:48:28.646Z,92.37
2018-09-26T05:49:28.639Z,92.18
2018-09-26T05:50:28.635Z,90.66
2018-09-26T05:51:28.628Z,91.23
2018-09-26T05:52:28.616Z,91.42
2018-09-26T05:53:28.634Z,89.61
2018-09-26T05:54:28.601Z,90.42
2018-09-26T05:55:28.596Z,90.04
2018-09-26T05:56:28.591Z,89.37
2018-09-26T05:57:28.584Z,89.28
2018-09-26T05:58:28.579Z,88.13
2018-09-26T05:59:28.579Z,88.42
2018-09-26T06:00:28.563Z,88.18
2018-09-26T06:01:28.560Z,88.09
2018-09-26T06:02:28.554Z,88.18
2018-09-26T06:03:28.545Z,87.71
2018-09-26T06:04:28.536Z,87.42
2018-09-26T06:05:28.536Z,86.76
2018-09-26T06:06:28.529Z,87.80
2018-09-26T06:07:28.518Z,86.76
2018-09-26T06:08:28.511Z,86.47
2018-09-26T06:09:28.505Z,86.28
2018-09-26T06:10:28.498Z,86.28
2018-09-26T06:11:28.496Z,85.90
2018-09-26T06:12:28.484Z,85.80
2018-09-26T06:13:28.480Z,86.09
2018-09-26T06:14:28.474Z,86.76
2018-09-26T06:15:28.468Z,87.32
2018-09-26T06:16:28.463Z,86.76
2018-09-26T06:17:28.454Z,86.28
2018-09-26T06:18:28.451Z,85.24
2018-09-26T06:19:28.444Z,85.14
2018-09-26T06:20:28.437Z,86.32
2018-09-26T06:21:28.434Z,85.28
2018-09-26T06:22:28.428Z,86.13
2018-09-26T06:23:28.421Z,85.37
2018-09-26T06:24:28.464Z,84.80
2018-09-26T06:25:28.410Z,83.56
2018-09-26T06:26:28.402Z,84.52
2018-09-26T06:27:28.399Z,84.42
2018-09-26T06:28:28.391Z,83.75
2018-09-26T06:29:28.387Z,83.56
2018-09-26T06:30:28.378Z,83.18
2018-09-26T06:31:28.373Z,83.18
2018-09-26T06:32:28.365Z,82.23
2018-09-26T06:33:28.359Z,82.51
2018-09-26T06:34:28.356Z,82.32
2018-09-26T06:35:28.346Z,82.84
2018-09-26T06:36:28.343Z,82.37
2018-09-26T06:37:28.341Z,82.65
2018-09-26T06:38:28.337Z,82.56
2018-09-26T06:39:28.330Z,82.04
2018-09-26T06:40:28.436Z,82.32
2018-09-26T06:41:28.318Z,82.51
2018-09-26T06:42:28.311Z,82.56
2018-09-26T06:43:28.304Z,82.42
2018-09-26T06:44:28.300Z,83.18
2018-09-26T06:45:28.292Z,82.65
2018-09-26T06:46:28.289Z,82.75
2018-09-26T06:47:28.317Z,82.23
2018-09-26T06:48:28.273Z,82.46
2018-09-26T06:49:28.270Z,82.65
2018-09-26T06:50:28.269Z,82.93
2018-09-26T06:51:28.265Z,82.46
2018-09-26T06:52:28.254Z,82.18
2018-09-26T06:53:28.248Z,82.65
2018-09-26T06:54:28.246Z,82.75
2018-09-26T06:55:28.238Z,82.27
2018-09-26T06:56:28.234Z,82.37
2018-09-26T06:57:28.227Z,82.56
2018-09-26T06:58:28.218Z,82.18
2018-09-26T06:59:28.215Z,81.79
2018-09-26T07:00:28.221Z,81.79
2018-09-26T07:01:28.207Z,81.41
2018-09-26T07:02:28.202Z,81.23
2018-09-26T07:03:28.197Z,81.03
2018-09-26T07:04:28.192Z,81.13
2018-09-26T07:05:28.187Z,81.03
2018-09-26T07:06:28.182Z,81.03
2018-09-26T07:07:28.174Z,80.55
2018-09-26T07:08:28.162Z,80.46
2018-09-26T07:09:28.162Z,79.17
2018-09-26T07:10:28.165Z,79.83
2018-09-26T07:11:28.158Z,79.17
2018-09-26T07:12:28.145Z,78.88
2018-09-26T07:13:28.145Z,78.98
2018-09-26T07:14:28.143Z,78.31
2018-09-26T07:15:28.134Z,78.31
2018-09-26T07:16:28.128Z,78.25
2018-09-26T07:17:28.122Z,78.35
2018-09-26T07:18:28.118Z,77.69
2018-09-26T07:19:28.115Z,77.01
2018-09-26T07:20:28.107Z,76.29
2018-09-26T07:21:28.103Z,76.29
2018-09-26T07:22:28.100Z,75.81
2018-09-26T07:23:28.093Z,76.20
2018-09-26T07:24:28.089Z,74.92
2018-09-26T07:25:28.083Z,74.86
2018-09-26T07:26:28.080Z,76.01
2018-09-26T07:27:28.080Z,75.24
2018-09-26T07:28:28.073Z,75.81
2018-09-26T07:29:28.071Z,75.15
2018-09-26T07:30:28.061Z,74.57
2018-09-26T07:31:28.078Z,74.86
2018-09-26T07:32:28.049Z,74.38
2018-09-26T07:33:28.048Z,73.66
2018-09-26T07:34:28.042Z,73.94
2018-09-26T07:35:28.041Z,73.94
2018-09-26T07:36:28.034Z,73.28
2018-09-26T07:37:28.028Z,73.94
2018-09-26T07:38:28.042Z,73.85
2018-09-26T07:39:28.016Z,73.47
2018-09-26T07:40:28.015Z,72.71
2018-09-26T07:41:28.013Z,72.61
2018-09-26T07:42:28.009Z,72.61
2018-09-26T07:43:28.001Z,72.23
2018-09-26T07:44:27.998Z,72.61
2018-09-26T07:45:28.030Z,72.42
2018-09-26T07:46:27.993Z,72.74
2018-09-26T07:47:27.988Z,71.78
2018-09-26T07:48:27.980Z,71.69
2018-09-26T07:49:27.980Z,71.21
2018-09-26T07:50:27.973Z,70.16
2018-09-26T07:51:27.974Z,70.01
2018-09-26T07:52:27.965Z,70.01
2018-09-26T07:53:27.960Z,69.43
2018-09-26T07:54:27.959Z,69.62
2018-09-26T07:55:27.952Z,69.05
2018-09-26T07:56:27.953Z,68.86
2018-09-26T07:57:27.946Z,68.29
2018-09-26T07:58:27.941Z,68.00
2018-09-26T07:59:27.939Z,66.95
2018-09-26T08:00:28.845Z,66.47
2018-09-26T08:01:27.930Z,66.66
2018-09-26T08:02:27.931Z,66.85
2018-09-26T08:03:27.922Z,67.24
2018-09-26T08:04:27.919Z,67.87
2018-09-26T08:05:27.928Z,67.52
2018-09-26T08:06:27.912Z,68.44
2018-09-26T08:07:27.914Z,67.77
2018-09-26T08:08:27.908Z,68.16
2018-09-26T08:09:27.902Z,68.26
2018-09-26T08:10:28.832Z,68.92
2018-09-26T08:11:27.998Z,68.82
2018-09-26T08:12:27.890Z,68.06
2018-09-26T08:13:27.890Z,68.63
2018-09-26T08:14:27.884Z,67.40
2018-09-26T08:15:27.880Z,67.87
2018-09-26T08:16:27.876Z,67.49
2018-09-26T08:17:27.892Z,67.68
2018-09-26T08:18:27.897Z,67.62
2018-09-26T08:19:27.865Z,66.85
2018-09-26T08:20:27.869Z,66.66
2018-09-26T08:21:27.865Z,66.56
2018-09-26T08:22:27.858Z,66.85
2018-09-26T08:23:27.874Z,66.09
2018-09-26T08:24:27.847Z,66.28
2018-09-26T08:25:27.841Z,66.66
2018-09-26T08:26:27.840Z,66.28
2018-09-26T08:27:27.840Z,66.19
2018-09-26T08:28:27.832Z,65.33
2018-09-26T08:29:28.339Z,66.09
2018-09-26T08:30:27.827Z,66.22
2018-09-26T08:31:27.830Z,65.45
2018-09-26T08:32:27.820Z,64.22
2018-09-26T08:33:27.813Z,63.57
2018-09-26T08:34:27.812Z,63.96
2018-09-26T08:35:27.809Z,63.96
2018-09-26T08:36:27.803Z,63.19
2018-09-26T08:37:27.800Z,61.31
2018-09-26T08:38:27.794Z,61.31
2018-09-26T08:39:27.832Z,60.35
2018-09-26T08:40:27.790Z,59.40
2018-09-26T08:41:27.800Z,59.20
2018-09-26T08:42:27.784Z,59.30
2018-09-26T08:43:27.787Z,59.59
2018-09-26T08:44:27.780Z,59.49
2018-09-26T08:45:27.778Z,59.40
2018-09-26T08:46:27.774Z,59.40
2018-09-26T08:47:27.991Z,59.20
2018-09-26T08:48:27.764Z,59.56
2018-09-26T08:49:27.765Z,59.49
2018-09-26T08:50:27.762Z,59.56
2018-09-26T08:51:27.757Z,59.75
2018-09-26T08:52:27.755Z,59.47
2018-09-26T08:53:27.754Z,59.94
2018-09-26T08:54:27.751Z,59.18
2018-09-26T08:55:27.754Z,59.49
2018-09-26T08:56:27.744Z,59.11
2018-09-26T08:57:27.745Z,60.04
2018-09-26T08:58:27.741Z,59.56
2018-09-26T08:59:27.738Z,59.94
2018-09-26T09:00:27.736Z,59.27
2018-09-26T09:01:27.733Z,59.59
2018-09-26T09:02:27.731Z,59.78
2018-09-26T09:03:27.732Z,59.47
2018-09-26T09:04:27.795Z,59.18
2018-09-26T09:05:27.723Z,59.66
2018-09-26T09:06:27.721Z,59.27
2018-09-26T09:07:27.719Z,59.27
2018-09-26T09:08:27.712Z,59.47
2018-09-26T09:09:27.718Z,59.94
2018-09-26T09:10:27.712Z,60.04
2018-09-26T09:11:27.738Z,59.94
2018-09-26T09:12:27.708Z,59.37
2018-09-26T09:13:27.703Z,59.37
2018-09-26T09:14:27.769Z,59.66
2018-09-26T09:15:28.451Z,59.75
2018-09-26T09:16:27.696Z,59.94
2018-09-26T09:17:27.695Z,59.59
2018-09-26T09:18:27.693Z,59.08
2018-09-26T09:19:27.691Z,59.20
2018-09-26T09:20:27.686Z,59.30
2018-09-26T09:21:27.684Z,59.20
2018-09-26T09:22:27.681Z,59.40
2018-09-26T09:23:27.681Z,59.01
2018-09-26T09:24:27.680Z,58.44
2018-09-26T09:25:27.674Z,58.15
2018-09-26T09:26:27.671Z,57.39
2018-09-26T09:27:27.750Z,57.39
2018-09-26T09:28:27.680Z,57.58
2018-09-26T09:29:27.663Z,58.25
2018-09-26T09:30:27.662Z,57.87
2018-09-26T09:31:27.660Z,58.28
2018-09-26T09:32:27.657Z,59.14
2018-09-26T09:33:27.652Z,58.09
2018-09-26T09:34:27.651Z,57.13
2018-09-26T09:35:28.358Z,56.37
2018-09-26T09:36:27.705Z,56.17
2018-09-26T09:37:27.644Z,56.56
2018-09-26T09:38:27.641Z,55.98
2018-09-26T09:39:27.642Z,55.79
2018-09-26T09:40:27.637Z,56.56
2018-09-26T09:41:27.634Z,55.22
2018-09-26T09:42:27.632Z,56.08
2018-09-26T09:43:27.630Z,56.37
2018-09-26T09:44:27.675Z,55.31
2018-09-26T09:45:27.631Z,55.51
2018-09-26T09:46:27.625Z,55.60
2018-09-26T09:47:27.619Z,57.13
2018-09-26T09:48:27.622Z,55.88
2018-09-26T09:49:27.618Z,55.12
2018-09-26T09:50:27.619Z,55.02
2018-09-26T09:51:27.672Z,54.64
2018-09-26T09:52:27.615Z,55.31
2018-09-26T09:53:27.606Z,55.24
2018-09-26T09:54:27.611Z,55.91
2018-09-26T09:55:27.604Z,55.53
2018-09-26T09:56:27.604Z,56.20
2018-09-26T09:57:27.599Z,55.53
2018-09-26T09:58:27.597Z,55.15
2018-09-26T09:59:27.595Z,54.86
2018-09-26T10:00:27.598Z,54.10
2018-09-26T10:01:27.593Z,53.71
2018-09-26T10:02:27.690Z,53.81
2018-09-26T10:03:27.590Z,52.56
2018-09-26T10:04:27.584Z,52.66
2018-09-26T10:05:27.583Z,53.23
2018-09-26T10:06:27.640Z,54.10
2018-09-26T10:07:27.581Z,54.10
2018-09-26T10:08:27.576Z,53.07
2018-09-26T10:09:27.578Z,53.45
2018-09-26T10:10:27.724Z,52.87
2018-09-26T10:11:27.572Z,52.78
2018-09-26T10:12:27.573Z,52.78
2018-09-26T10:13:27.569Z,52.20
2018-09-26T10:14:28.430Z,50.96
2018-09-26T10:15:27.562Z,50.58
2018-09-26T10:16:27.630Z,50.96
2018-09-26T10:17:27.612Z,52.40
2018-09-26T10:18:27.559Z,53.07
2018-09-26T10:19:27.558Z,53.16
2018-09-26T10:20:27.557Z,53.55
2018-09-26T10:21:27.585Z,52.97
2018-09-26T10:22:27.551Z,53.64
2018-09-26T10:23:27.549Z,52.42
2018-09-26T10:24:27.545Z,51.63
2018-09-26T10:25:27.548Z,51.65
2018-09-26T10:26:27.549Z,51.44
2018-09-26T10:27:27.544Z,52.33
2018-09-26T10:28:27.544Z,51.28
2018-09-26T10:29:27.541Z,51.56
2018-09-26T10:30:27.541Z,51.56
2018-09-26T10:31:27.531Z,51.37
2018-09-26T10:32:27.534Z,51.08
2018-09-26T10:33:27.533Z,51.37
2018-09-26T10:34:27.531Z,50.79
2018-09-26T10:35:27.532Z,50.99
2018-09-26T10:36:27.529Z,50.60
2018-09-26T10:37:27.528Z,50.22
2018-09-26T10:38:27.527Z,50.53
2018-09-26T10:39:27.526Z,50.41
2018-09-26T10:40:27.523Z,51.20
2018-09-26T10:41:27.522Z,51.40
2018-09-26T10:42:27.521Z,50.41
2018-09-26T10:43:27.523Z,50.60
2018-09-26T10:44:27.515Z,51.08
2018-09-26T10:45:27.520Z,51.28
2018-09-26T10:46:27.543Z,51.56
2018-09-26T10:47:27.511Z,51.46
2018-09-26T10:48:27.519Z,51.28
2018-09-26T10:49:27.513Z,51.95
2018-09-26T10:50:27.543Z,52.23
2018-09-26T10:51:27.509Z,50.89
2018-09-26T10:52:27.508Z,50.99
2018-09-26T10:53:27.506Z,50.70
2018-09-26T10:54:27.507Z,50.22
2018-09-26T10:55:27.503Z,50.51
2018-09-26T10:56:27.525Z,50.12
2018-09-26T10:57:27.502Z,50.60
2018-09-26T10:58:27.498Z,50.51
2018-09-26T10:59:27.505Z,49.84
2018-09-26T11:00:27.497Z,50.51
2018-09-26T11:01:27.504Z,50.70
2018-09-26T11:02:27.547Z,50.79
2018-09-26T11:03:27.493Z,50.63
2018-09-26T11:04:27.493Z,51.10
2018-09-26T11:05:27.490Z,49.86
2018-09-26T11:06:27.493Z,49.57
2018-09-26T11:07:27.491Z,50.53
2018-09-26T11:08:27.486Z,50.05
2018-09-26T11:09:27.487Z,48.71
2018-09-26T11:10:27.555Z,47.94
2018-09-26T11:11:27.487Z,47.94
2018-09-26T11:12:27.526Z,47.94
2018-09-26T11:13:27.478Z,48.52
2018-09-26T11:14:27.573Z,46.98
2018-09-26T11:15:27.527Z,46.31
2018-09-26T11:16:27.568Z,47.25
2018-09-26T11:17:27.475Z,47.82
2018-09-26T11:18:27.471Z,48.21
2018-09-26T11:19:27.474Z,48.30
2018-09-26T11:20:27.473Z,48.59
2018-09-26T11:21:27.470Z,48.61
2018-09-26T11:22:27.463Z,48.43
2018-09-26T11:23:27.466Z,47.92
2018-09-26T11:24:27.463Z,48.61
2018-09-26T11:25:27.464Z,48.61
2018-09-26T11:26:27.517Z,48.61
2018-09-26T11:27:27.465Z,48.23
2018-09-26T11:28:27.540Z,48.23
2018-09-26T11:29:27.454Z,48.04
2018-09-26T11:30:27.463Z,48.80
2018-09-26T11:31:27.466Z,49.19
2018-09-26T11:32:27.570Z,48.90
2018-09-26T11:33:27.523Z,47.94
2018-09-26T11:34:27.525Z,47.75
2018-09-26T11:35:27.450Z,47.17
2018-09-26T11:36:27.452Z,47.97
2018-09-26T11:37:27.443Z,46.34
2018-09-26T11:38:27.499Z,46.12
2018-09-26T11:39:27.446Z,46.41
2018-09-26T11:40:27.444Z,45.28
2018-09-26T11:41:27.446Z,46.41
2018-09-26T11:42:27.440Z,45.86
2018-09-26T11:43:28.397Z,45.74
2018-09-26T11:44:27.465Z,45.64
2018-09-26T11:45:27.439Z,45.16
2018-09-26T11:46:27.446Z,45.16
2018-09-26T11:47:27.446Z,45.36
2018-09-26T11:48:27.434Z,46.03
2018-09-26T11:49:27.434Z,46.31
2018-09-26T11:50:27.433Z,45.28
2018-09-26T11:51:27.431Z,45.37
2018-09-26T11:52:27.489Z,45.28
2018-09-26T11:53:27.434Z,46.14
2018-09-26T11:54:27.428Z,45.95
2018-09-26T11:55:27.428Z,45.01
2018-09-26T11:56:27.452Z,45.86
2018-09-26T11:57:27.424Z,45.21
2018-09-26T11:58:27.629Z,45.88
2018-09-26T11:59:27.533Z,46.36
2018-09-26T12:00:27.975Z,45.21
2018-09-26T12:01:27.512Z,44.63
2018-09-26T12:02:27.592Z,45.68
2018-09-26T12:03:27.421Z,44.42
2018-09-26T12:04:27.419Z,44.42
2018-09-26T12:05:27.414Z,44.13
2018-09-26T12:06:27.418Z,45.09
2018-09-26T12:07:27.490Z,45.37
2018-09-26T12:08:27.544Z,46.34
2018-09-26T12:09:27.416Z,46.14
2018-09-26T12:10:27.411Z,45.28
2018-09-26T12:11:27.413Z,45.28
2018-09-26T12:12:27.414Z,44.32
2018-09-26T12:13:27.415Z,45.36
2018-09-26T12:14:27.411Z,45.83
2018-09-26T12:15:27.419Z,45.95
2018-09-26T12:16:27.417Z,45.47
2018-09-26T12:17:27.409Z,46.60
2018-09-26T12:18:27.451Z,46.91
2018-09-26T12:19:27.606Z,46.53
2018-09-26T12:20:27.409Z,46.14
2018-09-26T12:21:30.593Z,46.62
2018-09-26T12:22:27.464Z,46.72
2018-09-26T12:23:27.404Z,46.62
2018-09-26T12:24:27.407Z,46.91
2018-09-26T12:25:27.400Z,46.72
2018-09-26T12:26:27.404Z,45.57
2018-09-26T12:27:27.406Z,45.86
2018-09-26T12:28:27.552Z,45.76
2018-09-26T12:29:27.399Z,45.09
2018-09-26T12:30:27.456Z,45.00
2018-09-26T12:31:27.401Z,45.57
2018-09-26T12:32:27.403Z,46.72
2018-09-26T12:33:27.399Z,46.34
2018-09-26T12:34:27.399Z,46.34
2018-09-26T12:35:27.397Z,46.74
2018-09-26T12:36:27.453Z,46.91
2018-09-26T12:37:27.396Z,47.20
2018-09-26T12:38:27.398Z,46.55
2018-09-26T12:39:27.392Z,46.65
2018-09-26T12:40:27.394Z,45.78
2018-09-26T12:41:27.397Z,46.55
2018-09-26T12:42:27.397Z,46.45
2018-09-26T12:43:27.395Z,46.65
2018-09-26T12:44:27.392Z,46.65
2018-09-26T12:45:27.394Z,45.21
2018-09-26T12:46:27.394Z,45.88
2018-09-26T12:47:27.406Z,45.98
2018-09-26T12:48:27.444Z,46.36
2018-09-26T12:49:27.393Z,45.30
2018-09-26T12:50:27.391Z,45.30
2018-09-26T12:51:27.408Z,45.98
2018-09-26T12:52:27.392Z,46.45